createdAt,value
2023-04-10T00:02:28.044Z,102664.34
2023-04-10T00:04:56.195Z,102657.09
2023-04-10T00:07:24.213Z,102624.22
2023-04-10T00:09:52.253Z,102664.13
2023-04-10T00:12:21.804Z,102657.84
2023-04-10T00:14:49.968Z,102659.47
2023-04-10T00:17:18.096Z,102653.25
2023-04-10T00:19:46.015Z,102655.81
2023-04-10T00:22:14.026Z,102655.81
2023-04-10T00:24:42.027Z,102659.28
2023-04-10T00:27:10.131Z,102657.56
2023-04-10T00:29:39.451Z,102658.31
2023-04-10T00:32:07.809Z,102655.63
2023-04-10T00:34:36.033Z,102650.22
2023-04-10T00:37:04.191Z,102654.69
2023-04-10T00:39:32.219Z,102655.63
2023-04-10T00:42:01.532Z,102651.00
2023-04-10T00:44:29.716Z,102651.00
2023-04-10T00:46:59.258Z,102652.75
2023-04-10T00:49:27.444Z,102656.19
2023-04-10T00:51:57.915Z,102659.88
2023-04-10T00:54:26.703Z,102654.56
2023-04-10T00:56:54.779Z,102657.28
2023-04-10T00:59:22.838Z,102648.38
2023-04-10T01:01:50.989Z,102650.13
2023-04-10T01:04:20.797Z,102654.56
2023-04-10T01:06:59.448Z,102653.63
2023-04-10T01:09:42.768Z,102655.44
2023-04-10T01:12:21.884Z,102649.28
2023-04-10T01:14:58.225Z,102647.50
2023-04-10T01:17:32.931Z,102655.63
2023-04-10T01:20:11.286Z,102646.75
2023-04-10T01:22:53.190Z,102648.59
2023-04-10T01:25:39.986Z,102645.88
2023-04-10T01:28:34.161Z,102647.72
2023-04-10T01:31:05.587Z,102647.84
2023-04-10T01:33:47.837Z,102644.16
2023-04-10T01:36:22.607Z,102648.78
2023-04-10T01:38:52.688Z,102645.97
2023-04-10T01:41:21.581Z,102618.50
2023-04-10T01:43:52.142Z,102645.97
2023-04-10T01:46:23.625Z,102642.31
2023-04-10T01:48:54.396Z,102644.16
2023-04-10T01:51:24.605Z,102644.25
2023-04-10T01:53:53.572Z,102646.97
2023-04-10T01:56:25.834Z,102649.66
2023-04-10T01:58:54.314Z,102642.53
2023-04-10T02:01:29.644Z,102644.34
2023-04-10T02:03:58.935Z,102637.13
2023-04-10T02:06:36.364Z,102638.94
2023-04-10T02:09:11.060Z,102643.50
2023-04-10T02:11:45.324Z,102640.81
2023-04-10T02:14:18.295Z,102638.09
2023-04-10T02:16:48.266Z,102637.22
2023-04-10T02:19:18.092Z,102630.19
2023-04-10T02:21:47.176Z,102627.38
2023-04-10T02:24:15.689Z,102637.97
2023-04-10T02:26:47.318Z,102630.63
2023-04-10T02:29:15.531Z,102634.31
2023-04-10T02:31:43.743Z,102631.50
2023-04-10T02:34:13.896Z,102634.97
2023-04-10T02:36:42.007Z,102625.91
2023-04-10T02:39:12.378Z,102624.06
2023-04-10T02:41:48.532Z,102624.97
2023-04-10T02:44:16.569Z,102609.66
2023-04-10T02:46:46.527Z,102624.16
2023-04-10T02:49:16.625Z,102623.97
2023-04-10T02:51:45.788Z,102615.16
2023-04-10T02:54:13.825Z,102627.56
2023-04-10T02:56:43.521Z,102624.84
2023-04-10T02:59:11.524Z,102623.91
2023-04-10T03:01:40.791Z,102627.44
2023-04-10T03:04:09.430Z,102625.59
2023-04-10T03:06:41.901Z,102627.44
2023-04-10T03:09:10.243Z,102626.59
2023-04-10T03:11:38.239Z,102630.13
2023-04-10T03:14:06.462Z,102600.56
2023-04-10T03:16:34.643Z,102629.38
2023-04-10T03:19:05.179Z,102622.03
2023-04-10T03:21:33.187Z,102627.56
2023-04-10T03:24:02.770Z,102621.19
2023-04-10T03:26:30.943Z,102609.13
2023-04-10T03:28:59.046Z,102623.03
2023-04-10T03:31:27.002Z,102614.78
2023-04-10T03:33:58.609Z,102615.66
2023-04-10T03:36:27.564Z,102613.16
2023-04-10T03:38:55.499Z,102614.91
2023-04-10T03:41:25.847Z,102619.44
2023-04-10T03:43:54.546Z,102604.88
2023-04-10T03:46:23.192Z,102623.97
2023-04-10T03:48:54.195Z,102622.16
2023-04-10T03:51:24.496Z,102613.16
2023-04-10T03:53:52.737Z,102621.19
2023-04-10T03:56:21.136Z,102621.19
2023-04-10T03:58:50.696Z,102543.25
2023-04-10T04:01:18.716Z,102624.72
2023-04-10T04:04:01.447Z,102618.50
2023-04-10T04:07:05.246Z,102618.56
2023-04-10T04:10:09.437Z,102614.03
2023-04-10T04:12:48.172Z,102617.63
2023-04-10T04:15:43.614Z,102616.75
2023-04-10T04:18:30.199Z,102613.16
2023-04-10T04:21:18.060Z,102614.91
2023-04-10T04:24:04.371Z,102620.31
2023-04-10T04:26:51.554Z,102618.56
2023-04-10T04:29:38.691Z,102624.84
2023-04-10T04:32:17.613Z,102616.75
2023-04-10T04:35:05.846Z,102623.09
2023-04-10T04:38:03.322Z,102615.09
2023-04-10T04:40:52.049Z,102616.91
2023-04-10T04:43:41.282Z,102616.03
2023-04-10T04:46:27.969Z,102625.91
2023-04-10T04:49:23.570Z,102618.88
2023-04-10T04:52:27.534Z,102538.25
2023-04-10T04:55:18.732Z,102614.41
2023-04-10T04:58:04.414Z,102620.69
2023-04-10T05:00:32.680Z,102626.09
2023-04-10T05:03:07.964Z,102617.13
2023-04-10T05:05:42.922Z,102619.81
2023-04-10T05:08:22.104Z,102628.50
2023-04-10T05:11:07.671Z,102623.03
2023-04-10T05:14:01.870Z,102626.59
2023-04-10T05:16:45.068Z,102624.72
2023-04-10T05:19:16.315Z,102626.59
2023-04-10T05:22:04.243Z,102632.84
2023-04-10T05:24:46.727Z,102623.78
2023-04-10T05:27:14.719Z,102623.78
2023-04-10T05:30:06.512Z,102621.81
2023-04-10T05:32:37.413Z,102626.91
2023-04-10T05:35:40.944Z,102622.91
2023-04-10T05:38:26.178Z,102618.84
2023-04-10T05:41:17.285Z,102620.34
2023-04-10T05:44:20.447Z,102619.06
2023-04-10T05:47:26.273Z,102614.50
2023-04-10T05:49:58.968Z,102619.25
2023-04-10T05:52:36.226Z,102619.91
2023-04-10T05:55:36.356Z,102616.00
2023-04-10T05:58:33.764Z,102609.53
2023-04-10T06:01:21.940Z,102613.00
2023-04-10T06:03:55.212Z,102618.41
2023-04-10T06:06:25.902Z,102610.84
2023-04-10T06:08:54.097Z,102608.00
2023-04-10T06:11:23.751Z,102606.94
2023-04-10T06:13:54.857Z,102603.16
2023-04-10T06:16:29.686Z,102607.50
2023-04-10T06:18:58.014Z,102602.00
2023-04-10T06:21:26.394Z,102587.94
2023-04-10T06:23:54.956Z,102583.56
2023-04-10T06:26:25.846Z,102596.03
2023-04-10T06:28:54.002Z,102598.59
2023-04-10T06:31:23.104Z,102599.34
2023-04-10T06:33:51.683Z,102602.94
2023-04-10T06:36:19.860Z,102596.34
2023-04-10T06:38:58.418Z,102596.22
2023-04-10T06:41:27.948Z,102589.72
2023-04-10T06:43:57.494Z,102591.31
2023-04-10T06:46:25.536Z,102593.81
2023-04-10T06:48:53.756Z,102588.19
2023-04-10T06:51:22.119Z,102588.81
2023-04-10T06:53:50.359Z,102581.47
2023-04-10T06:56:18.363Z,102585.66
2023-04-10T06:58:47.786Z,102584.56
2023-04-10T07:01:17.757Z,102587.03
2023-04-10T07:03:46.035Z,102577.69
2023-04-10T07:06:14.103Z,102578.34
2023-04-10T07:08:42.295Z,102577.25
2023-04-10T07:11:10.330Z,102581.50
2023-04-10T07:13:40.079Z,102582.13
2023-04-10T07:16:11.096Z,102583.75
2023-04-10T07:18:41.157Z,102550.41
2023-04-10T07:21:13.313Z,102587.75
2023-04-10T07:23:41.415Z,102584.78
2023-04-10T07:26:09.374Z,102590.09
2023-04-10T07:28:38.262Z,102589.00
2023-04-10T07:31:07.920Z,102590.59
2023-04-10T07:33:37.353Z,102585.06
2023-04-10T07:36:06.119Z,102584.84
2023-04-10T07:38:34.154Z,102586.44
2023-04-10T07:41:02.100Z,102580.06
2023-04-10T07:43:30.553Z,102565.13
2023-04-10T07:45:58.932Z,102584.25
2023-04-10T07:48:27.012Z,102583.16
2023-04-10T07:50:56.444Z,102577.72
2023-04-10T07:53:24.399Z,102575.66
2023-04-10T07:55:53.544Z,102576.63
2023-04-10T07:58:22.789Z,102571.50
2023-04-10T08:00:50.739Z,102577.56
2023-04-10T08:03:19.074Z,102568.19
2023-04-10T08:05:47.242Z,102568.09
2023-04-10T08:08:17.133Z,102576.00
2023-04-10T08:10:45.107Z,102578.59
2023-04-10T08:13:13.068Z,102577.50
2023-04-10T08:15:41.327Z,102570.09
2023-04-10T08:18:09.321Z,102576.25
2023-04-10T08:20:37.335Z,102567.06
2023-04-10T08:23:19.301Z,102567.66
2023-04-10T08:25:49.932Z,102568.41
2023-04-10T08:28:19.343Z,102566.47
2023-04-10T08:30:47.407Z,102566.19
2023-04-10T08:33:15.496Z,102566.09
2023-04-10T08:35:43.591Z,102561.41
2023-04-10T08:38:14.226Z,102560.28
2023-04-10T08:40:44.533Z,102551.06
2023-04-10T08:43:14.075Z,102518.13
2023-04-10T08:45:42.650Z,102554.41
2023-04-10T08:48:11.932Z,102554.25
2023-04-10T08:50:43.409Z,102551.56
2023-04-10T08:53:13.909Z,102547.00
2023-04-10T08:55:42.765Z,102544.41
2023-04-10T08:58:13.602Z,102470.63
2023-04-10T09:00:43.142Z,102536.53
2023-04-10T09:03:14.188Z,102533.06
2023-04-10T09:05:42.559Z,102526.88
2023-04-10T09:08:10.883Z,102536.13
2023-04-10T09:10:39.341Z,102502.81
2023-04-10T09:13:07.414Z,102533.78
2023-04-10T09:16:01.288Z,102524.91
2023-04-10T09:18:43.603Z,102540.56
2023-04-10T09:21:12.646Z,102520.97
2023-04-10T09:23:40.799Z,102534.63
2023-04-10T09:26:27.219Z,102529.94
2023-04-10T09:29:03.230Z,102532.56
2023-04-10T09:31:37.646Z,102511.09
2023-04-10T09:34:09.481Z,102518.25
2023-04-10T09:36:38.082Z,102514.91
2023-04-10T09:39:06.549Z,102481.47
2023-04-10T09:41:34.706Z,102512.78
2023-04-10T09:44:10.633Z,102510.69
2023-04-10T09:46:40.189Z,102506.34
2023-04-10T09:49:09.449Z,102503.91
2023-04-10T09:51:39.374Z,102506.84
2023-04-10T09:54:07.323Z,102502.66
2023-04-10T09:56:39.454Z,102471.69
2023-04-10T09:59:09.435Z,102491.66
2023-04-10T10:01:41.191Z,102493.75
2023-04-10T10:04:11.127Z,102489.44
2023-04-10T10:06:40.347Z,102490.53
2023-04-10T10:09:08.517Z,102493.38
2023-04-10T10:11:36.947Z,102486.22
2023-04-10T10:14:10.498Z,102474.63
2023-04-10T10:16:44.697Z,102476.63
2023-04-10T10:19:17.796Z,102483.00
2023-04-10T10:21:46.913Z,102477.81
2023-04-10T10:24:17.296Z,102460.69
2023-04-10T10:26:47.336Z,102470.91
2023-04-10T10:29:18.587Z,102451.78
2023-04-10T10:31:48.664Z,102462.16
2023-04-10T10:34:17.043Z,102463.16
2023-04-10T10:36:45.031Z,102441.53
2023-04-10T10:39:25.783Z,102458.72
2023-04-10T10:42:02.535Z,102457.09
2023-04-10T10:44:38.158Z,102449.06
2023-04-10T10:47:15.719Z,102436.63
2023-04-10T10:49:54.400Z,102437.63
2023-04-10T10:52:41.995Z,102427.78
2023-04-10T10:55:31.478Z,102435.16
2023-04-10T10:58:01.431Z,102422.69
2023-04-10T11:01:08.439Z,102411.59
2023-04-10T11:03:40.818Z,102422.91
2023-04-10T11:06:09.969Z,102427.47
2023-04-10T11:08:44.314Z,102415.66
2023-04-10T11:11:16.119Z,102423.94
2023-04-10T11:14:18.123Z,102429.34
2023-04-10T11:16:48.602Z,102418.59
2023-04-10T11:19:22.742Z,102401.13
2023-04-10T11:22:09.026Z,102418.59
2023-04-10T11:25:00.620Z,102413.19
2023-04-10T11:27:49.774Z,102410.47
2023-04-10T11:30:28.114Z,102409.75
2023-04-10T11:32:56.805Z,102406.31
2023-04-10T11:35:27.656Z,102399.88
2023-04-10T11:38:12.973Z,102400.63
2023-04-10T11:40:58.393Z,102397.19
2023-04-10T11:43:26.650Z,102395.34
2023-04-10T11:46:01.709Z,102382.69
2023-04-10T11:48:30.317Z,102379.22
2023-04-10T11:51:01.685Z,102371.09
2023-04-10T11:53:30.225Z,102365.78
2023-04-10T11:55:58.715Z,102370.34
2023-04-10T11:58:28.244Z,102359.50
2023-04-10T12:01:03.944Z,102360.38
2023-04-10T12:03:40.762Z,102358.53
2023-04-10T12:06:12.514Z,102349.69
2023-04-10T12:08:42.475Z,102345.25
2023-04-10T12:11:11.478Z,102340.81
2023-04-10T12:13:40.363Z,102356.06
2023-04-10T12:16:10.323Z,102354.38
2023-04-10T12:18:38.958Z,102344.38
2023-04-10T12:21:08.779Z,102339.72
2023-04-10T12:23:40.226Z,102338.00
2023-04-10T12:26:11.569Z,102338.50
2023-04-10T12:28:40.745Z,102319.53
2023-04-10T12:31:09.309Z,102314.25
2023-04-10T12:33:37.673Z,102320.91
2023-04-10T12:36:06.105Z,102313.53
2023-04-10T12:38:43.342Z,102302.69
2023-04-10T12:41:12.304Z,102299.91
2023-04-10T12:43:42.235Z,102306.16
2023-04-10T12:46:24.856Z,102302.47
2023-04-10T12:48:53.156Z,102294.50
2023-04-10T12:51:21.294Z,102294.50
2023-04-10T12:53:51.079Z,102294.69
2023-04-10T12:56:20.393Z,102295.34
2023-04-10T12:58:48.330Z,102287.22
2023-04-10T13:01:16.453Z,102276.38
2023-04-10T13:03:46.676Z,102275.75
2023-04-10T13:06:14.694Z,102266.03
2023-04-10T13:08:42.619Z,102267.00
2023-04-10T13:11:12.204Z,102260.84
2023-04-10T13:13:40.230Z,102260.13
2023-04-10T13:16:12.725Z,102262.06
2023-04-10T13:18:40.748Z,102263.16
2023-04-10T13:21:08.979Z,102258.75
2023-04-10T13:23:37.049Z,102254.44
2023-04-10T13:26:05.825Z,102250.00
2023-04-10T13:28:35.388Z,102252.72
2023-04-10T13:31:03.443Z,102241.16
2023-04-10T13:33:31.504Z,102244.59
2023-04-10T13:35:59.472Z,102230.31
2023-04-10T13:38:27.600Z,102233.13
2023-04-10T13:40:55.713Z,102227.72
2023-04-10T13:43:23.676Z,102219.72
2023-04-10T13:45:53.062Z,102223.41
2023-04-10T13:48:24.504Z,102194.84
2023-04-10T13:50:57.937Z,102208.53
2023-04-10T13:53:26.068Z,102208.53
2023-04-10T13:55:54.095Z,102218.50
2023-04-10T13:58:22.080Z,102215.06
2023-04-10T14:00:50.242Z,102209.66
2023-04-10T14:03:19.643Z,102205.22
2023-04-10T14:05:48.085Z,102195.72
2023-04-10T14:08:16.058Z,102204.56
2023-04-10T14:10:44.075Z,102203.72
2023-04-10T14:13:12.036Z,102210.00
2023-04-10T14:15:40.060Z,102201.13
2023-04-10T14:18:08.135Z,102199.53
2023-04-10T14:20:37.544Z,102208.38
2023-04-10T14:23:05.478Z,102206.56
2023-04-10T14:25:33.516Z,102195.59
2023-04-10T14:28:01.474Z,102180.13
2023-04-10T14:30:30.941Z,102181.81
2023-04-10T14:32:59.306Z,102176.78
2023-04-10T14:35:27.535Z,102182.59
2023-04-10T14:37:56.907Z,102174.34
2023-04-10T14:40:24.871Z,102174.34
2023-04-10T14:42:53.117Z,102172.34
2023-04-10T14:45:21.082Z,102163.50
2023-04-10T14:47:49.048Z,102159.56
2023-04-10T14:50:17.316Z,102140.50
2023-04-10T14:52:45.459Z,102151.34
2023-04-10T14:55:14.885Z,102145.94
2023-04-10T14:57:42.859Z,102137.31
2023-04-10T15:00:11.945Z,102139.66
2023-04-10T15:02:40.322Z,102139.78
2023-04-10T15:05:08.876Z,102132.50
2023-04-10T15:07:36.757Z,102128.09
2023-04-10T15:10:05.331Z,102127.09
2023-04-10T15:12:34.780Z,102120.22
2023-04-10T15:15:02.757Z,102118.38
2023-04-10T15:17:30.929Z,102113.06
2023-04-10T15:19:58.980Z,102113.06
2023-04-10T15:22:26.997Z,102104.13
2023-04-10T15:24:55.026Z,102101.41
2023-04-10T15:27:23.170Z,102096.00
2023-04-10T15:29:52.592Z,102097.94
2023-04-10T15:32:20.716Z,102089.09
2023-04-10T15:34:48.621Z,102092.78
2023-04-10T15:37:16.642Z,102089.09
2023-04-10T15:39:44.671Z,102092.78
2023-04-10T15:42:12.682Z,102089.34
2023-04-10T15:44:40.796Z,102078.50
2023-04-10T15:47:10.140Z,102064.63
2023-04-10T15:49:38.858Z,102071.63
2023-04-10T15:52:07.539Z,102075.31
2023-04-10T15:54:36.083Z,102070.16
2023-04-10T15:57:04.533Z,102066.59
2023-04-10T15:59:33.875Z,102048.78
2023-04-10T16:02:02.032Z,102056.13
2023-04-10T16:04:31.916Z,102047.28
2023-04-10T16:06:59.880Z,102040.53
2023-04-10T16:09:27.977Z,102038.81
2023-04-10T16:11:57.874Z,101993.19
2023-04-10T16:14:25.955Z,102033.72
2023-04-10T16:16:53.935Z,102027.59
2023-04-10T16:19:21.872Z,102027.81
2023-04-10T16:21:51.893Z,102024.38
2023-04-10T16:24:19.892Z,102016.41
2023-04-10T16:26:47.941Z,102020.22
2023-04-10T16:29:18.160Z,102007.81
2023-04-10T16:31:46.414Z,101995.63
2023-04-10T16:34:14.534Z,102008.06
2023-04-10T16:36:42.541Z,101999.31
2023-04-10T16:39:12.035Z,101997.59
2023-04-10T16:41:40.117Z,101999.56
2023-04-10T16:44:08.430Z,101992.56
2023-04-10T16:46:36.548Z,101986.41
2023-04-10T16:49:05.731Z,101988.00
2023-04-10T16:51:33.817Z,102001.91
2023-04-10T16:54:01.813Z,101993.91
2023-04-10T16:56:32.471Z,101988.00
2023-04-10T16:59:00.793Z,101986.28
2023-04-10T17:01:28.804Z,101986.28
2023-04-10T17:03:56.811Z,101984.69
2023-04-10T17:06:24.848Z,101974.84
2023-04-10T17:08:52.818Z,101975.97
2023-04-10T17:11:20.799Z,101976.81
2023-04-10T17:13:50.127Z,101961.47
2023-04-10T17:16:18.057Z,101959.50
2023-04-10T17:18:45.967Z,101952.25
2023-04-10T17:21:14.342Z,101949.28
2023-04-10T17:23:42.554Z,101934.81
2023-04-10T17:26:14.828Z,101929.53
2023-04-10T17:28:44.858Z,101943.63
2023-04-10T17:31:14.960Z,101940.84
2023-04-10T17:33:43.438Z,101928.44
2023-04-10T17:36:12.766Z,101926.81
2023-04-10T17:38:41.447Z,101879.91
2023-04-10T17:41:10.372Z,101926.44
2023-04-10T17:43:38.417Z,101924.84
2023-04-10T17:46:06.936Z,101929.25
2023-04-10T17:48:39.025Z,101930.84
2023-04-10T17:51:07.772Z,101921.91
2023-04-10T17:53:35.915Z,101925.44
2023-04-10T17:56:03.902Z,101921.03
2023-04-10T17:58:31.969Z,101918.34
2023-04-10T18:01:00.168Z,101918.34
2023-04-10T18:03:28.175Z,101914.78
2023-04-10T18:05:57.535Z,101922.88
2023-04-10T18:08:25.541Z,101910.34
2023-04-10T18:10:53.597Z,101915.75
2023-04-10T18:13:21.567Z,101905.78
2023-04-10T18:15:49.687Z,101906.81
2023-04-10T18:18:17.688Z,101903.22
2023-04-10T18:20:45.734Z,101905.06
2023-04-10T18:23:15.142Z,101906.19
2023-04-10T18:25:43.253Z,101899.91
2023-04-10T18:28:15.341Z,101907.28
2023-04-10T18:30:44.649Z,101904.59
2023-04-10T18:33:14.005Z,101855.31
2023-04-10T18:35:42.195Z,101900.28
2023-04-10T18:38:10.249Z,101900.53
2023-04-10T18:40:39.736Z,101893.53
2023-04-10T18:43:07.580Z,101889.22
2023-04-10T18:45:36.428Z,101893.91
2023-04-10T18:48:04.835Z,101886.91
2023-04-10T18:50:35.591Z,101886.28
2023-04-10T18:53:03.758Z,101883.69
2023-04-10T18:55:31.639Z,101878.38
2023-04-10T18:58:02.104Z,101871.50
2023-04-10T19:00:31.988Z,101874.94
2023-04-10T19:03:00.124Z,101868.69
2023-04-10T19:05:28.263Z,101872.38
2023-04-10T19:08:03.514Z,101872.47
2023-04-10T19:10:31.943Z,101869.78
2023-04-10T19:13:01.293Z,101852.59
2023-04-10T19:15:29.390Z,101871.75
2023-04-10T19:17:57.590Z,101862.91
2023-04-10T19:20:49.878Z,101862.91
2023-04-10T19:23:13.968Z,101850.38
2023-04-10T19:25:42.580Z,101845.22
2023-04-10T19:28:12.068Z,101858.47
2023-04-10T19:30:40.029Z,101842.41
2023-04-10T19:33:07.995Z,101846.09
2023-04-10T19:35:36.138Z,101848.06
2023-04-10T19:38:04.185Z,101834.66
2023-04-10T19:40:32.232Z,101832.94
2023-04-10T19:43:01.893Z,101824.72
2023-04-10T19:45:32.398Z,101828.03
2023-04-10T19:48:00.796Z,101826.22
2023-04-10T19:50:30.374Z,101807.41
2023-04-10T19:52:59.546Z,101814.16
2023-04-10T19:55:28.102Z,101806.06
2023-04-10T19:57:56.196Z,101803.25
2023-04-10T20:00:24.122Z,101800.41
2023-04-10T20:02:53.495Z,101789.47
2023-04-10T20:05:21.858Z,101785.78
2023-04-10T20:07:50.397Z,101780.25
2023-04-10T20:10:18.516Z,101779.28
2023-04-10T20:12:46.424Z,101771.09
2023-04-10T20:15:14.544Z,101699.66
2023-04-10T20:17:42.572Z,101759.41
2023-04-10T20:20:13.656Z,101756.69
2023-04-10T20:22:41.653Z,101756.81
2023-04-10T20:25:10.478Z,101752.41
2023-04-10T20:27:38.498Z,101747.97
2023-04-10T20:30:07.832Z,101739.88
2023-04-10T20:32:35.770Z,101735.56
2023-04-10T20:35:03.814Z,101737.31
2023-04-10T20:37:33.140Z,101732.72
2023-04-10T20:40:01.267Z,101731.91
2023-04-10T20:42:29.326Z,101729.06
2023-04-10T20:44:57.329Z,101718.97
2023-04-10T20:47:25.293Z,101721.47
2023-04-10T20:49:53.277Z,101710.56
2023-04-10T20:52:21.245Z,101680.44
2023-04-10T20:54:50.672Z,101706.44
2023-04-10T20:57:18.538Z,101701.91
2023-04-10T20:59:46.527Z,101695.28
2023-04-10T21:02:14.552Z,101696.88
2023-04-10T21:04:42.632Z,101692.19
2023-04-10T21:07:10.687Z,101686.78
2023-04-10T21:09:38.775Z,101684.09
2023-04-10T21:12:08.225Z,101680.66
2023-04-10T21:14:36.337Z,101678.94
2023-04-10T21:17:04.381Z,101673.53
2023-04-10T21:19:32.281Z,101675.50
2023-04-10T21:22:00.405Z,101664.69
2023-04-10T21:24:29.447Z,101663.81
2023-04-10T21:26:57.412Z,101662.25
2023-04-10T21:29:26.830Z,101662.38
2023-04-10T21:31:55.054Z,101656.97
2023-04-10T21:34:23.088Z,101650.72
2023-04-10T21:36:51.139Z,101640.88
2023-04-10T21:39:19.166Z,101645.06
2023-04-10T21:41:47.097Z,101648.59
2023-04-10T21:44:15.321Z,101631.81
2023-04-10T21:46:44.805Z,101628.94
2023-04-10T21:49:12.816Z,101632.53
2023-04-10T21:51:41.577Z,101634.34
2023-04-10T21:54:09.798Z,101629.09
2023-04-10T21:56:38.787Z,101621.09
2023-04-10T21:59:06.820Z,101624.91
2023-04-10T22:01:35.180Z,101631.34
2023-04-10T22:04:04.863Z,101627.00
2023-04-10T22:06:33.046Z,101627.13
2023-04-10T22:09:01.120Z,101621.84
2023-04-10T22:11:29.089Z,101622.59
2023-04-10T22:14:00.293Z,101622.59
2023-04-10T22:16:34.043Z,101615.59
2023-04-10T22:19:02.090Z,101622.22
2023-04-10T22:21:31.720Z,101616.72
2023-04-10T22:23:59.658Z,101612.28
2023-04-10T22:26:27.664Z,101606.28
2023-04-10T22:28:55.998Z,101601.13
2023-04-10T22:31:24.127Z,101587.00
2023-04-10T22:33:52.154Z,101598.41
2023-04-10T22:36:20.153Z,101592.88
2023-04-10T22:38:49.592Z,101593.72
2023-04-10T22:41:17.523Z,101594.84
2023-04-10T22:43:45.590Z,101565.41
2023-04-10T22:46:13.561Z,101591.13
2023-04-10T22:48:41.692Z,101553.66
2023-04-10T22:51:11.863Z,101579.75
2023-04-10T22:53:39.971Z,101574.19
2023-04-10T22:56:10.991Z,101570.22
2023-04-10T22:58:40.422Z,101574.50
2023-04-10T23:01:08.971Z,101566.28
2023-04-10T23:03:37.023Z,101519.59
2023-04-10T23:06:05.494Z,101558.03
2023-04-10T23:08:33.545Z,101550.09
2023-04-10T23:11:01.512Z,101546.88
2023-04-10T23:13:31.002Z,101545.84
2023-04-10T23:15:58.966Z,101540.44
2023-04-10T23:18:27.044Z,101536.63
2023-04-10T23:20:54.938Z,101520.66
2023-04-10T23:23:22.877Z,101529.38
2023-04-10T23:25:58.880Z,101512.31
2023-04-10T23:28:27.318Z,101513.03
2023-04-10T23:30:56.584Z,101512.91
2023-04-10T23:33:24.687Z,101505.91
2023-04-10T23:35:52.775Z,101503.78
2023-04-10T23:38:21.181Z,101500.09
2023-04-10T23:40:49.250Z,101492.72
2023-04-10T23:43:17.250Z,101482.75
2023-04-10T23:45:45.239Z,101482.75
2023-04-10T23:48:14.618Z,101480.06
2023-04-10T23:50:42.707Z,101477.34
2023-04-10T23:53:11.840Z,101466.09
2023-04-10T23:55:40.946Z,101467.41
2023-04-10T23:58:08.862Z,101479.09
